sensor_id;sensor_type;location;lat;lon;timestamp;P1;durP1;ratioP1;P2;durP2;ratioP2
35294;SDS011;21413;48.032;7.764;2023-06-14T00:01:13;6.00;;;5.20;;
35294;SDS011;21413;48.032;7.764;2023-06-14T00:03:39;5.90;;;5.40;;
35294;SDS011;21413;48.032;7.764;2023-06-14T00:06:07;6.10;;;5.50;;
35294;SDS011;21413;48.032;7.764;2023-06-14T00:08:33;5.07;;;4.70;;
35294;SDS011;21413;48.032;7.764;2023-06-14T00:11:04;6.13;;;5.53;;
35294;SDS011;21413;48.032;7.764;2023-06-14T00:13:30;6.13;;;5.57;;
35294;SDS011;21413;48.032;7.764;2023-06-14T00:15:56;6.47;;;4.93;;
35294;SDS011;21413;48.032;7.764;2023-06-14T00:18:24;6.70;;;5.50;;
35294;SDS011;21413;48.032;7.764;2023-06-14T00:20:54;9.90;;;4.77;;
35294;SDS011;21413;48.032;7.764;2023-06-14T00:23:22;6.90;;;5.23;;
35294;SDS011;21413;48.032;7.764;2023-06-14T00:25:48;4.87;;;4.57;;
35294;SDS011;21413;48.032;7.764;2023-06-14T00:28:14;9.27;;;4.87;;
35294;SDS011;21413;48.032;7.764;2023-06-14T00:30:40;6.07;;;5.47;;
35294;SDS011;21413;48.032;7.764;2023-06-14T00:33:09;5.57;;;5.27;;
35294;SDS011;21413;48.032;7.764;2023-06-14T00:35:37;6.70;;;5.50;;
35294;SDS011;21413;48.032;7.764;2023-06-14T00:38:03;5.80;;;5.40;;
35294;SDS011;21413;48.032;7.764;2023-06-14T00:40:29;6.23;;;5.63;;
35294;SDS011;21413;48.032;7.764;2023-06-14T00:42:55;5.10;;;4.80;;
35294;SDS011;21413;48.032;7.764;2023-06-14T00:45:21;5.93;;;5.40;;
35294;SDS011;21413;48.032;7.764;2023-06-14T00:47:49;11.73;;;5.60;;
35294;SDS011;21413;48.032;7.764;2023-06-14T00:50:22;5.03;;;4.73;;
35294;SDS011;21413;48.032;7.764;2023-06-14T00:52:49;4.60;;;4.40;;
35294;SDS011;21413;48.032;7.764;2023-06-14T00:55:18;7.57;;;5.20;;
35294;SDS011;21413;48.032;7.764;2023-06-14T00:57:44;5.50;;;5.00;;
35294;SDS011;21413;48.032;7.764;2023-06-14T01:00:10;5.03;;;4.67;;
35294;SDS011;21413;48.032;7.764;2023-06-14T01:02:37;5.10;;;4.90;;
35294;SDS011;21413;48.032;7.764;2023-06-14T01:05:03;5.07;;;4.77;;
35294;SDS011;21413;48.032;7.764;2023-06-14T01:07:43;6.23;;;5.63;;
35294;SDS011;21413;48.032;7.764;2023-06-14T01:12:58;7.00;;;5.30;;
35294;SDS011;21413;48.032;7.764;2023-06-14T01:15:29;7.30;;;5.30;;
35294;SDS011;21413;48.032;7.764;2023-06-14T01:17:58;5.63;;;5.33;;
35294;SDS011;21413;48.032;7.764;2023-06-14T01:20:29;10.93;;;5.47;;
35294;SDS011;21413;48.032;7.764;2023-06-14T01:22:56;5.73;;;5.17;;
35294;SDS011;21413;48.032;7.764;2023-06-14T01:25:22;4.87;;;4.57;;
35294;SDS011;21413;48.032;7.764;2023-06-14T01:27:49;5.60;;;5.20;;
35294;SDS011;21413;48.032;7.764;2023-06-14T01:30:18;4.90;;;4.70;;
35294;SDS011;21413;48.032;7.764;2023-06-14T01:32:46;6.27;;;5.77;;
35294;SDS011;21413;48.032;7.764;2023-06-14T01:35:12;6.50;;;4.93;;
35294;SDS011;21413;48.032;7.764;2023-06-14T01:37:38;6.80;;;5.33;;
35294;SDS011;21413;48.032;7.764;2023-06-14T01:40:05;5.67;;;5.17;;
35294;SDS011;21413;48.032;7.764;2023-06-14T01:42:32;7.27;;;5.93;;
35294;SDS011;21413;48.032;7.764;2023-06-14T01:44:59;5.03;;;4.63;;
35294;SDS011;21413;48.032;7.764;2023-06-14T01:47:26;6.13;;;5.30;;
35294;SDS011;21413;48.032;7.764;2023-06-14T01:49:52;6.60;;;6.03;;
35294;SDS011;21413;48.032;7.764;2023-06-14T01:52:18;5.07;;;4.60;;
35294;SDS011;21413;48.032;7.764;2023-06-14T01:54:44;7.80;;;5.10;;
35294;SDS011;21413;48.032;7.764;2023-06-14T01:57:14;5.90;;;5.53;;
35294;SDS011;21413;48.032;7.764;2023-06-14T01:59:40;5.47;;;5.20;;
35294;SDS011;21413;48.032;7.764;2023-06-14T02:02:06;5.73;;;5.17;;
35294;SDS011;21413;48.032;7.764;2023-06-14T02:04:32;6.20;;;5.60;;
35294;SDS011;21413;48.032;7.764;2023-06-14T02:06:58;5.60;;;5.20;;
35294;SDS011;21413;48.032;7.764;2023-06-14T02:09:27;5.77;;;5.27;;
35294;SDS011;21413;48.032;7.764;2023-06-14T02:11:53;5.63;;;5.23;;
35294;SDS011;21413;48.032;7.764;2023-06-14T02:14:20;6.10;;;5.70;;
35294;SDS011;21413;48.032;7.764;2023-06-14T02:16:46;7.07;;;5.60;;
35294;SDS011;21413;48.032;7.764;2023-06-14T02:19:16;7.20;;;5.40;;
35294;SDS011;21413;48.032;7.764;2023-06-14T02:21:43;6.43;;;5.03;;
35294;SDS011;21413;48.032;7.764;2023-06-14T02:24:09;5.60;;;5.10;;
35294;SDS011;21413;48.032;7.764;2023-06-14T02:26:35;6.13;;;4.97;;
35294;SDS011;21413;48.032;7.764;2023-06-14T02:29:03;5.80;;;5.40;;
35294;SDS011;21413;48.032;7.764;2023-06-14T02:31:33;8.37;;;5.83;;
35294;SDS011;21413;48.032;7.764;2023-06-14T02:34:02;5.23;;;5.00;;
35294;SDS011;21413;48.032;7.764;2023-06-14T02:36:28;6.47;;;5.90;;
35294;SDS011;21413;48.032;7.764;2023-06-14T02:38:57;6.83;;;5.30;;
35294;SDS011;21413;48.032;7.764;2023-06-14T02:41:27;6.20;;;5.63;;
35294;SDS011;21413;48.032;7.764;2023-06-14T02:43:53;5.73;;;5.43;;
35294;SDS011;21413;48.032;7.764;2023-06-14T02:46:20;6.10;;;4.97;;
35294;SDS011;21413;48.032;7.764;2023-06-14T02:48:46;6.70;;;6.10;;
35294;SDS011;21413;48.032;7.764;2023-06-14T02:51:12;5.80;;;5.37;;
35294;SDS011;21413;48.032;7.764;2023-06-14T02:53:38;6.00;;;5.60;;
35294;SDS011;21413;48.032;7.764;2023-06-14T02:56:05;5.17;;;4.80;;
35294;SDS011;21413;48.032;7.764;2023-06-14T02:58:31;5.87;;;5.37;;
35294;SDS011;21413;48.032;7.764;2023-06-14T03:00:58;9.00;;;6.13;;
35294;SDS011;21413;48.032;7.764;2023-06-14T03:03:28;6.23;;;5.63;;
35294;SDS011;21413;48.032;7.764;2023-06-14T03:05:56;6.00;;;5.20;;
35294;SDS011;21413;48.032;7.764;2023-06-14T03:08:23;7.20;;;5.60;;
35294;SDS011;21413;48.032;7.764;2023-06-14T03:10:52;5.50;;;4.97;;
35294;SDS011;21413;48.032;7.764;2023-06-14T03:13:22;7.63;;;5.03;;
35294;SDS011;21413;48.032;7.764;2023-06-14T03:15:48;5.83;;;5.40;;
35294;SDS011;21413;48.032;7.764;2023-06-14T03:18:21;5.80;;;5.30;;
35294;SDS011;21413;48.032;7.764;2023-06-14T03:20:50;5.77;;;5.27;;
35294;SDS011;21413;48.032;7.764;2023-06-14T03:23:16;5.73;;;5.40;;
35294;SDS011;21413;48.032;7.764;2023-06-14T03:25:42;6.43;;;5.63;;
35294;SDS011;21413;48.032;7.764;2023-06-14T03:28:08;5.73;;;5.23;;
35294;SDS011;21413;48.032;7.764;2023-06-14T03:30:35;7.87;;;5.27;;
35294;SDS011;21413;48.032;7.764;2023-06-14T03:33:01;7.03;;;5.57;;
35294;SDS011;21413;48.032;7.764;2023-06-14T03:35:27;8.83;;;5.13;;
35294;SDS011;21413;48.032;7.764;2023-06-14T03:37:53;5.47;;;4.97;;
35294;SDS011;21413;48.032;7.764;2023-06-14T03:40:20;6.23;;;5.57;;
35294;SDS011;21413;48.032;7.764;2023-06-14T03:42:46;6.37;;;5.90;;
35294;SDS011;21413;48.032;7.764;2023-06-14T03:45:12;10.43;;;6.00;;
35294;SDS011;21413;48.032;7.764;2023-06-14T03:47:43;7.47;;;5.90;;
35294;SDS011;21413;48.032;7.764;2023-06-14T03:50:09;11.20;;;5.67;;
35294;SDS011;21413;48.032;7.764;2023-06-14T03:52:36;6.30;;;5.90;;
35294;SDS011;21413;48.032;7.764;2023-06-14T03:55:02;6.03;;;5.53;;
35294;SDS011;21413;48.032;7.764;2023-06-14T03:57:29;6.30;;;5.73;;
35294;SDS011;21413;48.032;7.764;2023-06-14T03:59:57;6.37;;;5.77;;
35294;SDS011;21413;48.032;7.764;2023-06-14T04:02:23;6.40;;;5.73;;
35294;SDS011;21413;48.032;7.764;2023-06-14T04:04:50;8.77;;;5.77;;
35294;SDS011;21413;48.032;7.764;2023-06-14T04:07:16;5.63;;;5.30;;
35294;SDS011;21413;48.032;7.764;2023-06-14T04:09:44;6.37;;;5.73;;
35294;SDS011;21413;48.032;7.764;2023-06-14T04:12:10;6.10;;;5.80;;
35294;SDS011;21413;48.032;7.764;2023-06-14T04:14:36;6.03;;;5.60;;
35294;SDS011;21413;48.032;7.764;2023-06-14T04:17:02;6.03;;;5.43;;
35294;SDS011;21413;48.032;7.764;2023-06-14T04:19:28;10.70;;;6.37;;
35294;SDS011;21413;48.032;7.764;2023-06-14T04:21:54;7.30;;;6.00;;
35294;SDS011;21413;48.032;7.764;2023-06-14T04:24:21;7.70;;;6.30;;
35294;SDS011;21413;48.032;7.764;2023-06-14T04:26:48;7.77;;;5.90;;
35294;SDS011;21413;48.032;7.764;2023-06-14T04:29:19;9.33;;;5.87;;
35294;SDS011;21413;48.032;7.764;2023-06-14T04:31:49;6.07;;;5.60;;
35294;SDS011;21413;48.032;7.764;2023-06-14T04:34:18;6.50;;;5.87;;
35294;SDS011;21413;48.032;7.764;2023-06-14T04:36:44;6.23;;;5.77;;
35294;SDS011;21413;48.032;7.764;2023-06-14T04:39:14;7.90;;;6.07;;
35294;SDS011;21413;48.032;7.764;2023-06-14T04:41:40;5.90;;;5.40;;
35294;SDS011;21413;48.032;7.764;2023-06-14T04:44:09;5.37;;;4.70;;
35294;SDS011;21413;48.032;7.764;2023-06-14T04:46:35;6.47;;;5.97;;
35294;SDS011;21413;48.032;7.764;2023-06-14T04:49:20;5.50;;;5.10;;
35294;SDS011;21413;48.032;7.764;2023-06-14T04:51:48;5.70;;;5.30;;
35294;SDS011;21413;48.032;7.764;2023-06-14T04:54:22;6.07;;;5.30;;
35294;SDS011;21413;48.032;7.764;2023-06-14T04:56:49;7.07;;;4.97;;
35294;SDS011;21413;48.032;7.764;2023-06-14T04:59:15;5.60;;;5.17;;
35294;SDS011;21413;48.032;7.764;2023-06-14T05:01:42;6.93;;;5.10;;
35294;SDS011;21413;48.032;7.764;2023-06-14T05:04:13;5.80;;;4.90;;
35294;SDS011;21413;48.032;7.764;2023-06-14T05:06:40;8.30;;;5.20;;
35294;SDS011;21413;48.032;7.764;2023-06-14T05:09:08;12.43;;;5.43;;
35294;SDS011;21413;48.032;7.764;2023-06-14T05:11:34;5.50;;;4.77;;
35294;SDS011;21413;48.032;7.764;2023-06-14T05:14:00;11.13;;;5.20;;
35294;SDS011;21413;48.032;7.764;2023-06-14T05:16:26;5.70;;;5.30;;
35294;SDS011;21413;48.032;7.764;2023-06-14T05:18:54;6.93;;;6.37;;
35294;SDS011;21413;48.032;7.764;2023-06-14T05:21:20;6.00;;;5.60;;
35294;SDS011;21413;48.032;7.764;2023-06-14T05:23:48;14.10;;;5.43;;
35294;SDS011;21413;48.032;7.764;2023-06-14T05:26:15;7.70;;;6.00;;
35294;SDS011;21413;48.032;7.764;2023-06-14T05:28:41;6.43;;;5.90;;
35294;SDS011;21413;48.032;7.764;2023-06-14T05:31:07;6.40;;;5.80;;
35294;SDS011;21413;48.032;7.764;2023-06-14T05:33:36;6.50;;;5.93;;
35294;SDS011;21413;48.032;7.764;2023-06-14T05:36:02;15.90;;;7.27;;
35294;SDS011;21413;48.032;7.764;2023-06-14T05:38:30;7.80;;;6.43;;
35294;SDS011;21413;48.032;7.764;2023-06-14T05:40:56;7.87;;;6.60;;
35294;SDS011;21413;48.032;7.764;2023-06-14T05:43:24;14.60;;;6.07;;
35294;SDS011;21413;48.032;7.764;2023-06-14T05:45:53;9.23;;;6.70;;
35294;SDS011;21413;48.032;7.764;2023-06-14T05:48:19;12.60;;;6.60;;
35294;SDS011;21413;48.032;7.764;2023-06-14T05:50:45;10.30;;;6.80;;
35294;SDS011;21413;48.032;7.764;2023-06-14T05:53:11;9.10;;;6.83;;
35294;SDS011;21413;48.032;7.764;2023-06-14T05:55:37;8.97;;;6.90;;
35294;SDS011;21413;48.032;7.764;2023-06-14T05:58:03;6.60;;;6.20;;
35294;SDS011;21413;48.032;7.764;2023-06-14T06:00:31;7.40;;;6.70;;
35294;SDS011;21413;48.032;7.764;2023-06-14T06:02:57;7.37;;;6.77;;
35294;SDS011;21413;48.032;7.764;2023-06-14T06:05:24;8.40;;;7.53;;
35294;SDS011;21413;48.032;7.764;2023-06-14T06:07:50;10.53;;;6.87;;
35294;SDS011;21413;48.032;7.764;2023-06-14T06:10:16;7.53;;;6.53;;
35294;SDS011;21413;48.032;7.764;2023-06-14T06:12:42;7.60;;;7.00;;
35294;SDS011;21413;48.032;7.764;2023-06-14T06:15:08;8.23;;;7.40;;
35294;SDS011;21413;48.032;7.764;2023-06-14T06:17:37;9.00;;;6.90;;
35294;SDS011;21413;48.032;7.764;2023-06-14T06:20:05;12.23;;;6.60;;
35294;SDS011;21413;48.032;7.764;2023-06-14T06:22:33;7.87;;;6.83;;
35294;SDS011;21413;48.032;7.764;2023-06-14T06:24:59;11.63;;;6.53;;
35294;SDS011;21413;48.032;7.764;2023-06-14T06:27:27;6.60;;;6.10;;
35294;SDS011;21413;48.032;7.764;2023-06-14T06:29:53;16.80;;;6.97;;
35294;SDS011;21413;48.032;7.764;2023-06-14T06:32:19;9.23;;;7.13;;
35294;SDS011;21413;48.032;7.764;2023-06-14T06:34:45;8.60;;;6.77;;
35294;SDS011;21413;48.032;7.764;2023-06-14T06:37:14;6.60;;;6.00;;
35294;SDS011;21413;48.032;7.764;2023-06-14T06:39:40;10.47;;;6.27;;
35294;SDS011;21413;48.032;7.764;2023-06-14T06:42:06;9.33;;;6.77;;
35294;SDS011;21413;48.032;7.764;2023-06-14T06:44:34;13.33;;;6.47;;
35294;SDS011;21413;48.032;7.764;2023-06-14T06:47:00;6.50;;;6.10;;
35294;SDS011;21413;48.032;7.764;2023-06-14T06:49:28;9.00;;;6.33;;
35294;SDS011;21413;48.032;7.764;2023-06-14T06:54:27;7.07;;;6.47;;
35294;SDS011;21413;48.032;7.764;2023-06-14T06:56:53;7.07;;;6.03;;
35294;SDS011;21413;48.032;7.764;2023-06-14T06:59:21;6.80;;;6.33;;
35294;SDS011;21413;48.032;7.764;2023-06-14T07:01:47;6.33;;;5.80;;
35294;SDS011;21413;48.032;7.764;2023-06-14T07:04:13;9.37;;;6.80;;
35294;SDS011;21413;48.032;7.764;2023-06-14T07:06:42;7.07;;;6.37;;
35294;SDS011;21413;48.032;7.764;2023-06-14T07:09:08;8.57;;;5.80;;
35294;SDS011;21413;48.032;7.764;2023-06-14T07:11:39;10.27;;;7.00;;
35294;SDS011;21413;48.032;7.764;2023-06-14T07:14:05;12.83;;;9.83;;
35294;SDS011;21413;48.032;7.764;2023-06-14T07:16:33;7.30;;;6.67;;
35294;SDS011;21413;48.032;7.764;2023-06-14T07:19:01;6.50;;;5.90;;
35294;SDS011;21413;48.032;7.764;2023-06-14T07:21:27;7.23;;;6.53;;
35294;SDS011;21413;48.032;7.764;2023-06-14T07:23:53;7.27;;;6.40;;
35294;SDS011;21413;48.032;7.764;2023-06-14T07:26:19;9.63;;;8.80;;
35294;SDS011;21413;48.032;7.764;2023-06-14T07:28:46;5.77;;;5.30;;
35294;SDS011;21413;48.032;7.764;2023-06-14T07:31:12;10.50;;;6.20;;
35294;SDS011;21413;48.032;7.764;2023-06-14T07:33:41;15.23;;;11.70;;
35294;SDS011;21413;48.032;7.764;2023-06-14T07:36:10;15.67;;;12.33;;
35294;SDS011;21413;48.032;7.764;2023-06-14T07:38:36;5.30;;;5.10;;
35294;SDS011;21413;48.032;7.764;2023-06-14T07:41:02;11.07;;;6.30;;
35294;SDS011;21413;48.032;7.764;2023-06-14T07:43:28;6.27;;;5.70;;
35294;SDS011;21413;48.032;7.764;2023-06-14T07:45:57;8.20;;;6.00;;
35294;SDS011;21413;48.032;7.764;2023-06-14T07:48:25;6.73;;;5.90;;
35294;SDS011;21413;48.032;7.764;2023-06-14T07:50:51;5.60;;;5.10;;
35294;SDS011;21413;48.032;7.764;2023-06-14T07:53:17;16.50;;;6.70;;
35294;SDS011;21413;48.032;7.764;2023-06-14T07:55:43;10.00;;;6.57;;
35294;SDS011;21413;48.032;7.764;2023-06-14T07:58:09;14.67;;;6.20;;
35294;SDS011;21413;48.032;7.764;2023-06-14T08:00:38;7.50;;;5.93;;
35294;SDS011;21413;48.032;7.764;2023-06-14T08:03:04;7.07;;;5.27;;
35294;SDS011;21413;48.032;7.764;2023-06-14T08:05:30;6.20;;;5.60;;
35294;SDS011;21413;48.032;7.764;2023-06-14T08:07:56;6.83;;;5.30;;
35294;SDS011;21413;48.032;7.764;2023-06-14T08:10:24;12.50;;;5.93;;
35294;SDS011;21413;48.032;7.764;2023-06-14T08:12:50;9.27;;;5.50;;
35294;SDS011;21413;48.032;7.764;2023-06-14T08:15:16;5.57;;;5.17;;
35294;SDS011;21413;48.032;7.764;2023-06-14T08:17:43;5.97;;;5.33;;
35294;SDS011;21413;48.032;7.764;2023-06-14T08:20:13;6.13;;;4.83;;
35294;SDS011;21413;48.032;7.764;2023-06-14T08:22:41;7.67;;;5.40;;
35294;SDS011;21413;48.032;7.764;2023-06-14T08:25:08;6.00;;;5.57;;
35294;SDS011;21413;48.032;7.764;2023-06-14T08:27:34;10.80;;;5.20;;
35294;SDS011;21413;48.032;7.764;2023-06-14T08:30:00;5.57;;;5.27;;
35294;SDS011;21413;48.032;7.764;2023-06-14T08:32:27;9.20;;;4.87;;
35294;SDS011;21413;48.032;7.764;2023-06-14T08:34:53;5.63;;;4.87;;
35294;SDS011;21413;48.032;7.764;2023-06-14T08:37:24;7.77;;;5.07;;
35294;SDS011;21413;48.032;7.764;2023-06-14T08:39:51;6.70;;;5.00;;
35294;SDS011;21413;48.032;7.764;2023-06-14T08:42:17;4.73;;;4.43;;
35294;SDS011;21413;48.032;7.764;2023-06-14T08:44:44;7.80;;;5.23;;
35294;SDS011;21413;48.032;7.764;2023-06-14T08:47:10;8.23;;;5.20;;
35294;SDS011;21413;48.032;7.764;2023-06-14T08:49:38;5.23;;;4.73;;
35294;SDS011;21413;48.032;7.764;2023-06-14T08:52:08;4.97;;;4.57;;
35294;SDS011;21413;48.032;7.764;2023-06-14T08:54:38;8.70;;;5.67;;
35294;SDS011;21413;48.032;7.764;2023-06-14T08:57:09;5.00;;;4.60;;
35294;SDS011;21413;48.032;7.764;2023-06-14T08:59:40;12.83;;;5.20;;
35294;SDS011;21413;48.032;7.764;2023-06-14T09:02:08;6.83;;;4.90;;
35294;SDS011;21413;48.032;7.764;2023-06-14T09:04:39;5.70;;;4.80;;
35294;SDS011;21413;48.032;7.764;2023-06-14T09:07:06;5.10;;;4.70;;
35294;SDS011;21413;48.032;7.764;2023-06-14T09:09:32;7.90;;;4.87;;
35294;SDS011;21413;48.032;7.764;2023-06-14T09:11:59;13.63;;;5.43;;
35294;SDS011;21413;48.032;7.764;2023-06-14T09:14:27;5.27;;;4.73;;
35294;SDS011;21413;48.032;7.764;2023-06-14T09:16:54;6.27;;;5.67;;
35294;SDS011;21413;48.032;7.764;2023-06-14T09:19:25;8.60;;;5.20;;
35294;SDS011;21413;48.032;7.764;2023-06-14T09:21:52;5.03;;;4.70;;
35294;SDS011;21413;48.032;7.764;2023-06-14T09:24:18;5.07;;;4.77;;
35294;SDS011;21413;48.032;7.764;2023-06-14T09:26:47;10.00;;;4.33;;
35294;SDS011;21413;48.032;7.764;2023-06-14T09:29:13;5.13;;;4.83;;
35294;SDS011;21413;48.032;7.764;2023-06-14T09:31:39;4.53;;;4.00;;
35294;SDS011;21413;48.032;7.764;2023-06-14T09:34:05;5.47;;;4.97;;
35294;SDS011;21413;48.032;7.764;2023-06-14T09:36:31;14.20;;;5.10;;
35294;SDS011;21413;48.032;7.764;2023-06-14T09:38:58;8.27;;;4.43;;
35294;SDS011;21413;48.032;7.764;2023-06-14T09:41:34;5.67;;;5.10;;
35294;SDS011;21413;48.032;7.764;2023-06-14T09:44:00;5.53;;;4.70;;
35294;SDS011;21413;48.032;7.764;2023-06-14T09:46:27;8.00;;;6.97;;
35294;SDS011;21413;48.032;7.764;2023-06-14T09:48:56;10.13;;;4.80;;
35294;SDS011;21413;48.032;7.764;2023-06-14T09:51:22;6.53;;;5.17;;
35294;SDS011;21413;48.032;7.764;2023-06-14T09:53:49;5.90;;;4.50;;
35294;SDS011;21413;48.032;7.764;2023-06-14T09:56:17;11.53;;;4.90;;
35294;SDS011;21413;48.032;7.764;2023-06-14T09:58:45;6.70;;;4.87;;
35294;SDS011;21413;48.032;7.764;2023-06-14T10:01:11;4.93;;;4.63;;
35294;SDS011;21413;48.032;7.764;2023-06-14T10:03:38;6.67;;;4.07;;
35294;SDS011;21413;48.032;7.764;2023-06-14T10:06:05;5.10;;;4.60;;
35294;SDS011;21413;48.032;7.764;2023-06-14T10:08:32;5.33;;;4.40;;
35294;SDS011;21413;48.032;7.764;2023-06-14T10:11:02;10.47;;;4.63;;
35294;SDS011;21413;48.032;7.764;2023-06-14T10:13:28;9.20;;;4.63;;
35294;SDS011;21413;48.032;7.764;2023-06-14T10:15:59;9.40;;;4.90;;
35294;SDS011;21413;48.032;7.764;2023-06-14T10:23:26;5.13;;;4.83;;
35294;SDS011;21413;48.032;7.764;2023-06-14T10:25:57;12.70;;;4.97;;
35294;SDS011;21413;48.032;7.764;2023-06-14T10:28:24;15.67;;;5.00;;
35294;SDS011;21413;48.032;7.764;2023-06-14T10:31:04;7.60;;;4.93;;
35294;SDS011;21413;48.032;7.764;2023-06-14T10:33:31;6.10;;;5.50;;
35294;SDS011;21413;48.032;7.764;2023-06-14T10:36:07;8.93;;;4.90;;
35294;SDS011;21413;48.032;7.764;2023-06-14T10:38:33;11.53;;;4.90;;
35294;SDS011;21413;48.032;7.764;2023-06-14T10:41:00;4.50;;;4.20;;
35294;SDS011;21413;48.032;7.764;2023-06-14T10:43:26;5.63;;;5.13;;
35294;SDS011;21413;48.032;7.764;2023-06-14T10:48:40;6.60;;;4.67;;
35294;SDS011;21413;48.032;7.764;2023-06-14T10:51:13;5.47;;;5.07;;
35294;SDS011;21413;48.032;7.764;2023-06-14T10:53:41;12.37;;;4.40;;
35294;SDS011;21413;48.032;7.764;2023-06-14T10:56:10;4.50;;;4.10;;
35294;SDS011;21413;48.032;7.764;2023-06-14T10:58:49;4.90;;;4.20;;
35294;SDS011;21413;48.032;7.764;2023-06-14T11:01:16;5.27;;;4.77;;
35294;SDS011;21413;48.032;7.764;2023-06-14T11:03:50;7.03;;;4.20;;
35294;SDS011;21413;48.032;7.764;2023-06-14T11:06:22;5.60;;;4.47;;
35294;SDS011;21413;48.032;7.764;2023-06-14T11:11:20;5.10;;;4.80;;
35294;SDS011;21413;48.032;7.764;2023-06-14T11:13:48;5.10;;;4.30;;
35294;SDS011;21413;48.032;7.764;2023-06-14T11:16:15;7.40;;;6.30;;
35294;SDS011;21413;48.032;7.764;2023-06-14T11:18:42;5.30;;;4.80;;
35294;SDS011;21413;48.032;7.764;2023-06-14T11:21:08;4.30;;;4.00;;
35294;SDS011;21413;48.032;7.764;2023-06-14T11:23:34;8.43;;;4.93;;
35294;SDS011;21413;48.032;7.764;2023-06-14T11:26:00;7.43;;;4.20;;
35294;SDS011;21413;48.032;7.764;2023-06-14T11:28:36;4.53;;;4.23;;
35294;SDS011;21413;48.032;7.764;2023-06-14T11:31:03;6.00;;;4.40;;
35294;SDS011;21413;48.032;7.764;2023-06-14T11:33:32;6.10;;;4.70;;
35294;SDS011;21413;48.032;7.764;2023-06-14T11:36:03;7.33;;;4.40;;
35294;SDS011;21413;48.032;7.764;2023-06-14T11:38:34;6.50;;;4.87;;
35294;SDS011;21413;48.032;7.764;2023-06-14T11:41:03;4.63;;;4.37;;
35294;SDS011;21413;48.032;7.764;2023-06-14T11:43:29;5.17;;;4.87;;
35294;SDS011;21413;48.032;7.764;2023-06-14T11:46:02;5.50;;;5.00;;
35294;SDS011;21413;48.032;7.764;2023-06-14T11:48:43;4.37;;;4.07;;
35294;SDS011;21413;48.032;7.764;2023-06-14T11:51:12;6.80;;;4.37;;
35294;SDS011;21413;48.032;7.764;2023-06-14T11:53:42;4.63;;;4.43;;
35294;SDS011;21413;48.032;7.764;2023-06-14T11:56:09;7.77;;;4.93;;
35294;SDS011;21413;48.032;7.764;2023-06-14T11:58:35;7.10;;;4.70;;
35294;SDS011;21413;48.032;7.764;2023-06-14T12:01:05;7.00;;;5.93;;
35294;SDS011;21413;48.032;7.764;2023-06-14T12:03:34;5.23;;;4.73;;
35294;SDS011;21413;48.032;7.764;2023-06-14T12:08:33;10.17;;;4.40;;
35294;SDS011;21413;48.032;7.764;2023-06-14T12:11:03;8.40;;;4.57;;
35294;SDS011;21413;48.032;7.764;2023-06-14T12:13:29;8.43;;;4.80;;
35294;SDS011;21413;48.032;7.764;2023-06-14T12:15:56;6.70;;;4.53;;
35294;SDS011;21413;48.032;7.764;2023-06-14T12:18:33;5.23;;;4.27;;
35294;SDS011;21413;48.032;7.764;2023-06-14T12:21:00;5.43;;;3.90;;
35294;SDS011;21413;48.032;7.764;2023-06-14T12:26:12;6.77;;;4.00;;
35294;SDS011;21413;48.032;7.764;2023-06-14T12:28:40;4.53;;;4.23;;
35294;SDS011;21413;48.032;7.764;2023-06-14T12:31:12;5.60;;;5.10;;
35294;SDS011;21413;48.032;7.764;2023-06-14T12:33:39;4.63;;;4.20;;
35294;SDS011;21413;48.032;7.764;2023-06-14T12:36:09;4.20;;;3.57;;
35294;SDS011;21413;48.032;7.764;2023-06-14T12:38:35;8.93;;;4.10;;
35294;SDS011;21413;48.032;7.764;2023-06-14T12:41:04;5.60;;;3.93;;
35294;SDS011;21413;48.032;7.764;2023-06-14T12:43:30;6.23;;;4.27;;
35294;SDS011;21413;48.032;7.764;2023-06-14T12:45:56;4.40;;;4.20;;
35294;SDS011;21413;48.032;7.764;2023-06-14T12:48:25;4.40;;;4.03;;
35294;SDS011;21413;48.032;7.764;2023-06-14T12:50:56;8.73;;;4.00;;
35294;SDS011;21413;48.032;7.764;2023-06-14T12:53:22;8.13;;;4.50;;
35294;SDS011;21413;48.032;7.764;2023-06-14T12:55:48;5.77;;;4.23;;
35294;SDS011;21413;48.032;7.764;2023-06-14T12:58:14;7.37;;;4.60;;
35294;SDS011;21413;48.032;7.764;2023-06-14T13:00:44;4.20;;;4.10;;
35294;SDS011;21413;48.032;7.764;2023-06-14T13:03:12;4.10;;;3.80;;
35294;SDS011;21413;48.032;7.764;2023-06-14T13:05:38;4.67;;;4.27;;
35294;SDS011;21413;48.032;7.764;2023-06-14T13:08:08;7.20;;;6.43;;
35294;SDS011;21413;48.032;7.764;2023-06-14T13:10:36;5.80;;;4.23;;
35294;SDS011;21413;48.032;7.764;2023-06-14T13:13:02;4.27;;;4.07;;
35294;SDS011;21413;48.032;7.764;2023-06-14T13:15:28;5.47;;;4.33;;
35294;SDS011;21413;48.032;7.764;2023-06-14T13:17:54;6.00;;;3.90;;
35294;SDS011;21413;48.032;7.764;2023-06-14T13:20:25;18.33;;;4.57;;
35294;SDS011;21413;48.032;7.764;2023-06-14T13:22:53;4.40;;;4.20;;
35294;SDS011;21413;48.032;7.764;2023-06-14T13:25:19;5.63;;;3.60;;
35294;SDS011;21413;48.032;7.764;2023-06-14T13:27:45;8.07;;;4.63;;
35294;SDS011;21413;48.032;7.764;2023-06-14T13:30:11;4.00;;;3.90;;
35294;SDS011;21413;48.032;7.764;2023-06-14T13:32:37;4.47;;;4.03;;
35294;SDS011;21413;48.032;7.764;2023-06-14T13:35:03;5.93;;;4.90;;
35294;SDS011;21413;48.032;7.764;2023-06-14T13:37:29;6.60;;;3.93;;
35294;SDS011;21413;48.032;7.764;2023-06-14T13:39:55;4.43;;;3.47;;
35294;SDS011;21413;48.032;7.764;2023-06-14T13:42:21;4.53;;;4.17;;
35294;SDS011;21413;48.032;7.764;2023-06-14T13:44:47;8.47;;;4.33;;
35294;SDS011;21413;48.032;7.764;2023-06-14T13:47:13;3.80;;;3.50;;
35294;SDS011;21413;48.032;7.764;2023-06-14T13:49:39;6.30;;;4.17;;
35294;SDS011;21413;48.032;7.764;2023-06-14T13:52:08;4.77;;;4.30;;
35294;SDS011;21413;48.032;7.764;2023-06-14T13:54:36;4.87;;;4.43;;
35294;SDS011;21413;48.032;7.764;2023-06-14T13:57:02;4.30;;;4.07;;
35294;SDS011;21413;48.032;7.764;2023-06-14T13:59:28;5.40;;;4.50;;
35294;SDS011;21413;48.032;7.764;2023-06-14T14:01:54;16.37;;;4.27;;
35294;SDS011;21413;48.032;7.764;2023-06-14T14:04:20;4.23;;;4.03;;
35294;SDS011;21413;48.032;7.764;2023-06-14T14:06:47;6.73;;;3.77;;
35294;SDS011;21413;48.032;7.764;2023-06-14T14:09:13;5.70;;;3.83;;
35294;SDS011;21413;48.032;7.764;2023-06-14T14:11:39;4.33;;;4.03;;
35294;SDS011;21413;48.032;7.764;2023-06-14T14:14:09;5.60;;;4.30;;
35294;SDS011;21413;48.032;7.764;2023-06-14T14:16:35;8.20;;;4.20;;
35294;SDS011;21413;48.032;7.764;2023-06-14T14:19:04;4.10;;;3.97;;
35294;SDS011;21413;48.032;7.764;2023-06-14T14:21:31;3.70;;;3.60;;
35294;SDS011;21413;48.032;7.764;2023-06-14T14:23:57;11.73;;;4.00;;
35294;SDS011;21413;48.032;7.764;2023-06-14T14:26:23;8.20;;;6.70;;
35294;SDS011;21413;48.032;7.764;2023-06-14T14:28:50;4.37;;;3.93;;
35294;SDS011;21413;48.032;7.764;2023-06-14T14:31:16;8.03;;;3.97;;
35294;SDS011;21413;48.032;7.764;2023-06-14T14:33:42;4.07;;;3.87;;
35294;SDS011;21413;48.032;7.764;2023-06-14T14:36:08;5.53;;;3.60;;
35294;SDS011;21413;48.032;7.764;2023-06-14T14:38:34;9.87;;;4.20;;
35294;SDS011;21413;48.032;7.764;2023-06-14T14:41:00;4.10;;;3.87;;
35294;SDS011;21413;48.032;7.764;2023-06-14T14:43:29;5.47;;;4.03;;
35294;SDS011;21413;48.032;7.764;2023-06-14T14:45:56;4.20;;;3.70;;
35294;SDS011;21413;48.032;7.764;2023-06-14T14:48:22;5.03;;;4.30;;
35294;SDS011;21413;48.032;7.764;2023-06-14T14:50:48;4.40;;;3.93;;
35294;SDS011;21413;48.032;7.764;2023-06-14T14:53:14;3.90;;;3.70;;
35294;SDS011;21413;48.032;7.764;2023-06-14T14:55:44;4.30;;;3.90;;
35294;SDS011;21413;48.032;7.764;2023-06-14T14:58:12;5.20;;;3.97;;
35294;SDS011;21413;48.032;7.764;2023-06-14T15:00:38;5.13;;;4.13;;
35294;SDS011;21413;48.032;7.764;2023-06-14T15:03:04;4.20;;;3.90;;
35294;SDS011;21413;48.032;7.764;2023-06-14T15:05:30;3.90;;;3.70;;
35294;SDS011;21413;48.032;7.764;2023-06-14T15:07:56;7.00;;;4.27;;